createdAt,value
2019-04-27T00:00:56.100Z,4.85
2019-04-27T00:03:53.898Z,5.20
2019-04-27T00:06:23.735Z,4.90
2019-04-27T00:09:01.182Z,5.10
2019-04-27T00:11:37.374Z,5.03
2019-04-27T00:14:06.341Z,4.92
2019-04-27T00:16:50.823Z,4.70
2019-04-27T00:19:53.447Z,4.60
2019-04-27T00:22:40.181Z,4.62
2019-04-27T00:25:09.847Z,4.95
2019-04-27T00:27:55.361Z,5.28
2019-04-27T00:30:35.550Z,4.75
2019-04-27T00:33:11.162Z,4.85
2019-04-27T00:35:46.262Z,4.72
2019-04-27T00:38:30.242Z,4.78
2019-04-27T00:41:15.942Z,5.15
2019-04-27T00:43:49.463Z,5.10
2019-04-27T00:46:22.885Z,4.62
2019-04-27T00:48:57.163Z,5.03
2019-04-27T00:51:38.943Z,4.60
2019-04-27T00:54:16.084Z,4.90
2019-04-27T00:56:58.246Z,5.08
2019-04-27T00:59:56.203Z,4.55
2019-04-27T01:02:55.384Z,4.75
2019-04-27T01:05:33.680Z,4.62
2019-04-27T01:08:22.961Z,4.72
2019-04-27T01:10:56.285Z,4.60
2019-04-27T01:13:37.465Z,4.97
2019-04-27T01:16:13.232Z,4.80
2019-04-27T01:18:41.545Z,4.72
2019-04-27T01:21:15.285Z,4.35
2019-04-27T01:23:49.210Z,4.33
2019-04-27T01:26:40.105Z,4.20
2019-04-27T01:29:20.625Z,4.40
2019-04-27T01:31:49.566Z,4.85
2019-04-27T01:34:19.457Z,4.40
2019-04-27T01:36:56.126Z,4.50
2019-04-27T01:39:34.045Z,4.20
2019-04-27T01:42:11.286Z,4.72
2019-04-27T01:44:50.799Z,5.15
2019-04-27T01:47:29.051Z,4.62
2019-04-27T01:50:08.758Z,4.70
2019-04-27T01:52:38.550Z,5.17
2019-04-27T01:55:19.686Z,4.90
2019-04-27T01:57:56.306Z,4.42
2019-04-27T02:00:40.146Z,4.45
2019-04-27T02:03:10.646Z,5.10
2019-04-27T02:05:43.156Z,4.67
2019-04-27T02:08:19.727Z,4.83
2019-04-27T02:11:11.606Z,5.03
2019-04-27T02:13:45.007Z,5.00
2019-04-27T02:16:26.867Z,4.90
2019-04-27T02:19:05.127Z,4.72
2019-04-27T02:21:49.386Z,4.78
2019-04-27T02:24:18.523Z,4.50
2019-04-27T02:26:49.733Z,5.08
2019-04-27T02:29:55.728Z,4.20
2019-04-27T02:32:26.139Z,4.70
2019-04-27T02:35:04.112Z,4.55
2019-04-27T02:37:42.328Z,4.85
2019-04-27T02:40:42.642Z,4.78
2019-04-27T02:43:13.568Z,4.85
2019-04-27T02:45:56.228Z,4.78
2019-04-27T02:48:31.030Z,5.17
2019-04-27T02:51:15.049Z,4.42
2019-04-27T02:54:00.470Z,4.83
2019-04-27T02:56:53.055Z,4.70
2019-04-27T02:59:25.287Z,5.03
2019-04-27T03:02:19.698Z,5.30
2019-04-27T03:04:57.147Z,4.60
2019-04-27T03:07:32.096Z,4.70
2019-04-27T03:10:09.894Z,5.08
2019-04-27T03:13:15.088Z,4.92
2019-04-27T03:16:05.448Z,4.53
2019-04-27T03:18:50.713Z,4.90
2019-04-27T03:21:33.227Z,4.95
2019-04-27T03:24:09.821Z,4.62
2019-04-27T03:26:43.168Z,5.03
2019-04-27T03:29:22.552Z,5.17
2019-04-27T03:32:05.207Z,4.47
2019-04-27T03:34:41.928Z,5.00
2019-04-27T03:37:21.832Z,4.62
2019-04-27T03:39:59.951Z,4.55
2019-04-27T03:42:50.398Z,5.20
2019-04-27T03:45:21.763Z,4.28
2019-04-27T03:47:53.155Z,4.80
2019-04-27T03:50:32.295Z,4.87
2019-04-27T03:53:11.228Z,4.60
2019-04-27T03:55:46.766Z,4.90
2019-04-27T03:58:26.807Z,4.90
2019-04-27T04:03:53.147Z,4.78
2019-04-27T04:06:31.179Z,4.78
2019-04-27T04:09:14.507Z,4.70
2019-04-27T04:12:09.711Z,4.90
2019-04-27T04:14:49.446Z,4.42
2019-04-27T04:20:20.025Z,4.62
2019-04-27T04:22:56.806Z,4.70
2019-04-27T04:25:36.108Z,4.58
2019-04-27T04:28:09.383Z,4.60
2019-04-27T04:30:49.897Z,4.78
2019-04-27T04:33:21.101Z,4.72
2019-04-27T04:35:59.585Z,4.67
2019-04-27T04:38:33.234Z,4.15
2019-04-27T04:41:09.445Z,4.85
2019-04-27T04:43:54.146Z,4.55
2019-04-27T04:46:49.413Z,4.78
2019-04-27T04:49:24.166Z,4.70
2019-04-27T04:51:53.007Z,4.70
2019-04-27T04:54:49.540Z,4.65
2019-04-27T04:57:29.798Z,4.65
2019-04-27T05:00:09.669Z,4.30
2019-04-27T05:02:56.246Z,4.72
2019-04-27T05:05:33.194Z,4.72
2019-04-27T05:08:05.894Z,4.85
2019-04-27T05:10:36.106Z,4.62
2019-04-27T05:13:09.382Z,4.72
2019-04-27T05:15:44.242Z,4.67
2019-04-27T05:18:19.331Z,4.55
2019-04-27T05:24:02.107Z,4.65
2019-04-27T05:26:51.067Z,4.25
2019-04-27T05:29:20.246Z,4.83
2019-04-27T05:37:08.897Z,4.78
2019-04-27T05:39:41.546Z,4.58
2019-04-27T05:45:21.398Z,4.50
2019-04-27T05:48:06.873Z,4.80
2019-04-27T05:50:57.835Z,4.40
2019-04-27T05:53:43.240Z,4.40
2019-04-27T05:56:19.292Z,4.58
2019-04-27T05:59:03.067Z,4.83
2019-04-27T06:01:41.166Z,4.87
2019-04-27T06:04:32.065Z,4.53
2019-04-27T06:07:09.366Z,4.47
2019-04-27T06:09:47.165Z,4.70
2019-04-27T06:12:33.265Z,4.50
2019-04-27T06:15:09.766Z,4.67
2019-04-27T06:17:50.752Z,4.75
2019-04-27T06:20:20.925Z,4.75
2019-04-27T06:22:53.195Z,4.53
2019-04-27T06:25:30.364Z,4.70
2019-04-27T06:28:03.265Z,4.62
2019-04-27T06:30:39.042Z,4.55
2019-04-27T06:36:02.325Z,4.53
2019-04-27T06:38:59.225Z,4.62
2019-04-27T06:41:33.042Z,4.65
2019-04-27T06:44:11.164Z,4.83
2019-04-27T06:46:41.229Z,4.25
2019-04-27T06:49:15.446Z,4.83
2019-04-27T06:51:50.333Z,4.70
2019-04-27T06:54:23.905Z,4.95
2019-04-27T06:56:52.725Z,4.72
2019-04-27T06:59:30.105Z,4.58
2019-04-27T07:02:00.861Z,4.30
2019-04-27T07:04:39.131Z,4.53
2019-04-27T07:07:12.545Z,4.45
2019-04-27T07:09:41.373Z,4.70
2019-04-27T07:12:24.633Z,5.12
2019-04-27T07:15:01.226Z,4.92
2019-04-27T07:18:02.165Z,4.65
2019-04-27T07:20:11.067Z,4.90
2019-04-27T07:22:45.604Z,5.17
2019-04-27T07:25:22.185Z,5.50
2019-04-27T07:27:52.104Z,5.20
2019-04-27T07:30:21.027Z,5.60
2019-04-27T07:32:50.205Z,7.00
2019-04-27T07:35:19.657Z,6.45
2019-04-27T07:37:54.805Z,6.80
2019-04-27T07:40:25.565Z,7.37
2019-04-27T07:45:27.205Z,7.55
2019-04-27T07:47:59.405Z,9.00
2019-04-27T07:50:29.405Z,12.28
2019-04-27T07:53:00.733Z,11.03
2019-04-27T07:55:31.212Z,12.43
2019-04-27T07:58:04.885Z,13.15
2019-04-27T08:00:34.385Z,11.88
2019-04-27T08:05:33.624Z,17.45
2019-04-27T08:10:32.445Z,18.17
2019-04-27T08:13:02.941Z,17.90
2019-04-27T08:15:31.974Z,17.77
2019-04-27T08:18:01.046Z,18.02
2019-04-27T08:20:29.824Z,17.37
2019-04-27T08:23:01.985Z,17.85
2019-04-27T08:25:33.485Z,16.40
2019-04-27T08:28:11.645Z,17.30
2019-04-27T08:30:42.025Z,16.65
2019-04-27T08:33:12.225Z,16.57
2019-04-27T08:35:43.825Z,16.50
2019-04-27T08:38:14.105Z,15.58
2019-04-27T08:40:43.404Z,15.70
2019-04-27T08:43:12.708Z,15.72
2019-04-27T08:45:42.064Z,15.03
2019-04-27T08:48:12.484Z,15.63
2019-04-27T08:50:43.324Z,15.63
2019-04-27T08:55:40.547Z,15.25
2019-04-27T08:58:11.305Z,15.20
2019-04-27T09:03:09.746Z,14.53
2019-04-27T09:05:39.192Z,14.90
2019-04-27T09:08:19.070Z,14.38
2019-04-27T09:11:08.877Z,14.13
2019-04-27T09:13:41.280Z,14.68
2019-04-27T09:16:23.405Z,14.98
2019-04-27T09:18:55.464Z,13.45
2019-04-27T09:21:24.825Z,14.63
2019-04-27T09:23:56.945Z,14.78
2019-04-27T09:26:26.065Z,14.63
2019-04-27T09:28:56.065Z,14.05
2019-04-27T09:31:24.946Z,14.73
2019-04-27T09:33:55.428Z,15.28
2019-04-27T09:36:26.087Z,14.10
2019-04-27T09:38:56.613Z,14.18
2019-04-27T09:41:26.234Z,13.55
2019-04-27T09:43:56.646Z,14.90
2019-04-27T09:46:31.105Z,14.10
2019-04-27T09:49:00.225Z,14.60
2019-04-27T09:51:32.119Z,14.75
2019-04-27T09:54:02.087Z,14.28
2019-04-27T09:56:33.545Z,14.35
2019-04-27T09:59:03.741Z,13.95
2019-04-27T10:01:36.387Z,13.98
2019-04-27T10:04:05.865Z,14.53
2019-04-27T10:06:36.327Z,14.53
2019-04-27T10:09:07.572Z,14.03
2019-04-27T10:11:39.366Z,13.78
2019-04-27T10:14:09.326Z,14.45
2019-04-27T10:16:38.585Z,14.10
2019-04-27T10:19:09.432Z,14.38
2019-04-27T10:21:39.340Z,13.95
2019-04-27T10:24:08.727Z,14.83
2019-04-27T10:26:38.598Z,14.47
2019-04-27T10:29:07.685Z,14.57
2019-04-27T10:31:36.946Z,14.43
2019-04-27T10:34:07.625Z,13.38
2019-04-27T10:39:13.739Z,14.23
2019-04-27T10:41:46.436Z,14.43
2019-04-27T10:44:16.286Z,13.85
2019-04-27T10:46:46.661Z,13.63
2019-04-27T10:49:16.345Z,13.78
2019-04-27T10:52:06.825Z,13.95
2019-04-27T10:54:35.865Z,13.65
2019-04-27T10:57:06.286Z,14.05
2019-04-27T10:59:36.047Z,13.85
2019-04-27T11:02:07.553Z,13.18
2019-04-27T11:04:41.104Z,13.22
2019-04-27T11:07:11.734Z,12.68
2019-04-27T11:09:42.325Z,13.38
2019-04-27T11:14:39.944Z,13.55
2019-04-27T11:17:10.365Z,13.13
2019-04-27T11:19:39.645Z,12.45
2019-04-27T11:22:08.845Z,13.35
2019-04-27T11:24:39.005Z,13.55
2019-04-27T11:27:08.205Z,13.55
2019-04-27T11:29:40.445Z,12.45
2019-04-27T11:32:10.861Z,12.95
2019-04-27T11:35:00.226Z,12.70
2019-04-27T11:37:35.619Z,12.10
2019-04-27T11:40:11.606Z,11.95
2019-04-27T11:42:40.405Z,11.70
2019-04-27T11:45:09.625Z,11.43
2019-04-27T11:47:38.804Z,11.93
2019-04-27T11:50:08.240Z,11.73
2019-04-27T11:52:37.485Z,12.27
2019-04-27T11:55:07.885Z,11.78
2019-04-27T11:57:37.689Z,11.83
2019-04-27T12:00:13.834Z,11.48
2019-04-27T12:02:45.860Z,11.33
2019-04-27T12:05:16.066Z,11.48
2019-04-27T12:07:47.866Z,11.80
2019-04-27T12:10:18.485Z,10.95
2019-04-27T12:15:21.327Z,11.28
2019-04-27T12:17:53.906Z,11.10
2019-04-27T12:20:26.547Z,10.93
2019-04-27T12:22:58.505Z,12.10
2019-04-27T12:25:30.549Z,10.68
2019-04-27T12:28:04.965Z,10.48
2019-04-27T12:30:43.306Z,11.22
2019-04-27T12:33:12.318Z,10.35
2019-04-27T12:35:44.093Z,10.30
2019-04-27T12:38:16.345Z,10.58
2019-04-27T12:41:06.616Z,11.40
2019-04-27T12:43:38.405Z,10.72
2019-04-27T12:46:09.285Z,10.82
2019-04-27T12:48:38.545Z,10.53
2019-04-27T12:51:07.465Z,11.03
2019-04-27T12:53:50.767Z,10.43
2019-04-27T12:56:19.705Z,10.90
2019-04-27T12:58:59.044Z,10.03
2019-04-27T13:01:31.625Z,11.08
2019-04-27T13:04:02.266Z,10.50
2019-04-27T13:09:02.485Z,10.82
2019-04-27T13:11:33.245Z,10.43
2019-04-27T13:16:32.645Z,10.10
2019-04-27T13:19:01.885Z,11.03
2019-04-27T13:21:36.418Z,10.40
2019-04-27T13:24:07.095Z,9.93
2019-04-27T13:26:38.103Z,9.58
2019-04-27T13:29:11.053Z,10.10
2019-04-27T13:31:41.667Z,10.23
2019-04-27T13:34:10.725Z,10.00
2019-04-27T13:36:45.703Z,10.05
2019-04-27T13:39:17.385Z,9.70
2019-04-27T13:41:47.745Z,9.83
2019-04-27T13:44:17.065Z,9.55
2019-04-27T13:47:03.885Z,9.55
2019-04-27T13:49:41.765Z,9.05
2019-04-27T13:52:16.204Z,9.80
2019-04-27T13:54:45.864Z,9.00
2019-04-27T13:57:18.124Z,9.28
2019-04-27T14:02:15.979Z,8.90
2019-04-27T14:04:47.046Z,9.48
2019-04-27T14:09:48.586Z,9.43
2019-04-27T14:12:21.311Z,9.68
2019-04-27T14:14:51.161Z,9.75
2019-04-27T14:17:20.308Z,9.15
2019-04-27T14:19:51.053Z,9.53
2019-04-27T14:22:21.880Z,8.90
2019-04-27T14:24:51.953Z,9.13
2019-04-27T14:27:23.104Z,9.38
2019-04-27T14:29:53.425Z,9.00
2019-04-27T14:32:25.026Z,8.73
2019-04-27T14:34:53.965Z,9.20
2019-04-27T14:37:25.383Z,9.08
2019-04-27T14:39:56.144Z,9.40
2019-04-27T14:44:58.758Z,9.10
2019-04-27T14:47:27.845Z,9.60
2019-04-27T14:49:56.785Z,8.93
2019-04-27T14:52:25.733Z,9.68
2019-04-27T14:54:58.254Z,8.70
2019-04-27T14:57:26.998Z,9.58
2019-04-27T14:59:58.351Z,8.78
2019-04-27T15:02:29.250Z,8.80
2019-04-27T15:05:01.047Z,8.95
2019-04-27T15:07:31.185Z,9.20
2019-04-27T15:10:01.405Z,9.50
2019-04-27T15:12:32.374Z,9.60
2019-04-27T15:15:06.005Z,9.65
2019-04-27T15:17:35.425Z,9.38
2019-04-27T15:20:13.705Z,9.40
2019-04-27T15:22:45.465Z,9.50
2019-04-27T15:25:15.666Z,9.90
2019-04-27T15:27:47.207Z,10.03
2019-04-27T15:30:26.904Z,9.35
2019-04-27T15:33:05.008Z,8.98
2019-04-27T15:35:39.256Z,10.38
2019-04-27T15:38:10.796Z,9.53
2019-04-27T15:40:43.975Z,10.00
2019-04-27T15:43:14.625Z,10.35
2019-04-27T15:45:44.008Z,10.08
2019-04-27T15:48:14.425Z,9.60
2019-04-27T15:50:43.565Z,9.70
2019-04-27T15:53:14.433Z,9.73
2019-04-27T15:55:43.845Z,9.58
2019-04-27T15:58:12.893Z,10.28
2019-04-27T16:00:41.905Z,9.85
2019-04-27T16:03:11.427Z,9.45
2019-04-27T16:05:40.633Z,9.13
2019-04-27T16:08:15.250Z,9.33
2019-04-27T16:11:01.086Z,8.85
2019-04-27T16:13:33.179Z,8.93
2019-04-27T16:16:03.985Z,9.53
2019-04-27T16:18:33.328Z,8.97
2019-04-27T16:21:02.778Z,8.95
2019-04-27T16:26:11.166Z,8.80
2019-04-27T16:28:38.428Z,8.93
2019-04-27T16:33:36.084Z,9.58
2019-04-27T16:36:06.985Z,9.13
2019-04-27T16:38:56.573Z,9.05
2019-04-27T16:41:28.132Z,9.00
2019-04-27T16:43:58.134Z,8.90
2019-04-27T16:46:28.694Z,8.83
2019-04-27T16:49:07.380Z,8.88
2019-04-27T16:51:36.970Z,9.10
2019-04-27T16:54:05.664Z,8.78
2019-04-27T16:56:38.042Z,8.88
2019-04-27T16:59:35.591Z,8.40
2019-04-27T17:01:46.143Z,8.80
2019-04-27T17:04:14.395Z,8.40
2019-04-27T17:09:11.773Z,8.75
2019-04-27T17:11:43.951Z,8.95
2019-04-27T17:14:12.906Z,8.28
2019-04-27T17:16:50.066Z,8.25
2019-04-27T17:19:28.668Z,8.58
2019-04-27T17:21:57.453Z,8.80
2019-04-27T17:24:46.792Z,8.45
2019-04-27T17:27:16.275Z,8.73
2019-04-27T17:29:42.688Z,8.03
2019-04-27T17:32:13.133Z,7.87
2019-04-27T17:34:43.605Z,8.50
2019-04-27T17:37:15.607Z,8.30
2019-04-27T17:39:44.725Z,7.92
2019-04-27T17:42:14.365Z,8.48
2019-04-27T17:44:44.686Z,7.87
2019-04-27T17:47:13.968Z,8.55
2019-04-27T17:49:44.545Z,8.08
2019-04-27T17:52:17.194Z,8.28
2019-04-27T17:54:48.540Z,7.72
2019-04-27T17:57:17.902Z,8.30
2019-04-27T17:59:58.859Z,8.45
2019-04-27T18:02:29.216Z,8.28
2019-04-27T18:05:05.345Z,8.08
2019-04-27T18:07:40.390Z,8.60
2019-04-27T18:10:13.442Z,8.00
2019-04-27T18:12:44.586Z,8.73
2019-04-27T18:15:16.117Z,8.83
2019-04-27T18:17:49.985Z,7.40
2019-04-27T18:20:18.785Z,8.20
2019-04-27T18:22:49.285Z,8.45
2019-04-27T18:25:19.867Z,8.43
2019-04-27T18:27:54.585Z,7.67
2019-04-27T18:30:42.111Z,7.83
2019-04-27T18:33:13.045Z,7.87
2019-04-27T18:35:44.080Z,7.58
2019-04-27T18:38:13.386Z,8.23
2019-04-27T18:40:43.065Z,7.80
2019-04-27T18:43:12.365Z,7.65
2019-04-27T18:45:45.009Z,7.83
2019-04-27T18:48:15.206Z,7.78
2019-04-27T18:51:06.645Z,7.70
2019-04-27T18:53:36.673Z,7.70
2019-04-27T18:56:08.055Z,7.72
2019-04-27T18:58:42.216Z,7.83
2019-04-27T19:01:12.373Z,7.65
2019-04-27T19:03:41.930Z,8.65
2019-04-27T19:06:12.633Z,7.75
2019-04-27T19:11:11.828Z,7.12
2019-04-27T19:13:42.173Z,8.68
2019-04-27T19:16:13.033Z,7.95
2019-04-27T19:18:41.939Z,7.45
2019-04-27T19:21:11.125Z,7.33
2019-04-27T19:23:40.151Z,7.42
2019-04-27T19:26:15.149Z,7.60
2019-04-27T19:28:45.625Z,7.22
2019-04-27T19:31:18.901Z,7.90
2019-04-27T19:33:48.286Z,7.87
2019-04-27T19:36:19.252Z,7.15
2019-04-27T19:38:50.407Z,7.67
2019-04-27T19:41:22.185Z,7.25
2019-04-27T19:43:51.333Z,7.65
2019-04-27T19:46:22.737Z,7.55
2019-04-27T19:48:52.906Z,7.37
2019-04-27T19:51:25.265Z,7.40
2019-04-27T19:53:54.566Z,7.33
2019-04-27T19:56:28.337Z,7.03
2019-04-27T19:59:00.186Z,7.30
2019-04-27T20:01:31.550Z,7.45
2019-04-27T20:04:02.966Z,7.97
2019-04-27T20:06:33.162Z,7.55
2019-04-27T20:09:22.125Z,7.30
2019-04-27T20:11:53.166Z,7.20
2019-04-27T20:14:24.725Z,7.12
2019-04-27T20:16:57.026Z,7.42
2019-04-27T20:19:27.285Z,7.28
2019-04-27T20:21:58.669Z,7.87
2019-04-27T20:24:31.048Z,7.00
2019-04-27T20:27:03.345Z,7.65
2019-04-27T20:29:37.484Z,7.50
2019-04-27T20:32:11.341Z,7.15
2019-04-27T20:34:41.235Z,7.05
2019-04-27T20:37:11.782Z,7.22
2019-04-27T20:39:46.173Z,7.30
2019-04-27T20:42:16.855Z,6.62
2019-04-27T20:47:20.966Z,7.33
2019-04-27T20:49:51.986Z,6.67
2019-04-27T20:52:22.305Z,6.50
2019-04-27T20:54:51.520Z,6.58
2019-04-27T20:57:21.706Z,7.10
2019-04-27T20:59:52.251Z,7.08
2019-04-27T21:05:30.905Z,7.40
2019-04-27T21:08:02.785Z,7.22
2019-04-27T21:10:32.621Z,6.70
2019-04-27T21:13:02.005Z,7.20
2019-04-27T21:15:33.700Z,7.03
2019-04-27T21:18:06.524Z,6.90
2019-04-27T21:20:38.385Z,6.50
2019-04-27T21:23:08.760Z,7.08
2019-04-27T21:25:37.737Z,7.00
2019-04-27T21:28:16.375Z,6.47
2019-04-27T21:30:38.225Z,6.78
2019-04-27T21:33:07.473Z,6.33
2019-04-27T21:35:36.705Z,6.62
2019-04-27T21:38:05.594Z,6.67
2019-04-27T21:40:46.925Z,6.42
2019-04-27T21:46:27.365Z,6.47
2019-04-27T21:48:56.144Z,6.83
2019-04-27T21:51:27.565Z,6.62
2019-04-27T21:54:10.925Z,7.05
2019-04-27T21:56:41.885Z,6.28
2019-04-27T21:59:11.157Z,6.25
2019-04-27T22:01:41.725Z,7.47
2019-04-27T22:04:12.408Z,6.83
2019-04-27T22:06:42.728Z,6.47
2019-04-27T22:09:12.325Z,7.00
2019-04-27T22:11:44.034Z,6.37
2019-04-27T22:14:13.105Z,7.03
2019-04-27T22:16:42.033Z,6.80
2019-04-27T22:19:12.625Z,6.22
2019-04-27T22:21:44.365Z,6.65
2019-04-27T22:24:21.241Z,6.78
2019-04-27T22:26:51.775Z,6.20
2019-04-27T22:29:42.108Z,6.45
2019-04-27T22:32:11.985Z,6.87
2019-04-27T22:34:41.371Z,6.67
2019-04-27T22:37:11.123Z,6.65
2019-04-27T22:39:50.932Z,6.87
2019-04-27T22:42:23.966Z,6.55
2019-04-27T22:44:56.566Z,6.85
2019-04-27T22:47:32.345Z,6.20
2019-04-27T22:50:06.474Z,6.45
2019-04-27T22:52:35.785Z,6.37
2019-04-27T22:55:06.865Z,6.28
2019-04-27T23:00:15.208Z,6.75
2019-04-27T23:02:45.925Z,6.12
2019-04-27T23:05:17.024Z,6.50
2019-04-27T23:07:48.265Z,6.25
2019-04-27T23:12:46.505Z,6.30
2019-04-27T23:15:17.044Z,6.28
2019-04-27T23:17:53.325Z,6.00
2019-04-27T23:20:32.864Z,6.28
2019-04-27T23:23:06.085Z,6.15
2019-04-27T23:25:36.485Z,6.17
2019-04-27T23:28:05.565Z,6.20
2019-04-27T23:30:41.027Z,5.83
2019-04-27T23:33:11.124Z,6.20
2019-04-27T23:35:41.475Z,6.40
2019-04-27T23:38:17.907Z,5.53
2019-04-27T23:40:47.005Z,6.03
2019-04-27T23:43:16.185Z,6.00
2019-04-27T23:45:47.005Z,5.83
2019-04-27T23:50:47.845Z,6.53
2019-04-27T23:53:18.625Z,6.03
2019-04-27T23:58:43.785Z,6.10
